Time;durP1;ratioP1;P1;durP2;ratioP2;P2;SDS_P1;SDS_P2;PMS_P1;PMS_P2;Temp;Humidity;BMP_temperature;BMP_pressure;BME280_temperature;BME280_humidity;BME280_pressure;Samples;Min_cycle;Max_cycle;Signal;HPM_P1;HPM_P2
2022/07/27 00:01:12;;;;;;;2.22;1.40;;;;;;;15.53;65.09;101781.97;3593187;39;20055;-61
2022/07/27 00:03:38;;;;;;;7.93;2.03;;;;;;;15.46;65.34;101783.38;3594290;39;20306;-60
2022/07/27 00:06:04;;;;;;;5.80;1.77;;;;;;;15.44;65.60;101788.00;3595218;39;20067;-60
2022/07/27 00:08:30;;;;;;;5.05;2.08;;;;;;;15.38;65.79;101783.03;3595539;39;20052;-61
2022/07/27 00:10:56;;;;;;;6.25;1.90;;;;;;;15.38;66.24;101783.03;3593924;39;20052;-61
2022/07/27 00:13:22;;;;;;;3.95;1.80;;;;;;;15.32;66.25;101775.31;3593397;39;20263;-61
2022/07/27 00:15:48;;;;;;;4.40;2.22;;;;;;;15.22;66.42;101766.03;3592257;39;20056;-61
2022/07/27 00:18:13;;;;;;;2.75;1.83;;;;;;;15.26;66.37;101773.88;3593991;39;20062;-61
2022/07/27 00:20:40;;;;;;;5.28;2.10;;;;;;;15.27;66.95;101772.88;3592708;39;20274;-60
2022/07/27 00:23:06;;;;;;;3.72;2.10;;;;;;;15.27;66.97;101777.44;3593551;39;20058;-61
2022/07/27 00:25:32;;;;;;;4.20;2.03;;;;;;;15.26;66.65;101778.41;3593212;39;20066;-60
2022/07/27 00:27:57;;;;;;;7.05;2.22;;;;;;;15.26;67.02;101775.72;3593041;39;20043;-61
2022/07/27 00:30:25;;;;;;;5.13;2.20;;;;;;;15.22;66.88;101779.56;3593232;39;20389;-61
2022/07/27 00:32:51;;;;;;;5.25;2.45;;;;;;;15.19;67.37;101782.47;3591100;39;20047;-60
2022/07/27 00:35:17;;;;;;;5.43;2.25;;;;;;;15.13;67.21;101783.78;3592871;39;20057;-60
2022/07/27 00:37:43;;;;;;;4.88;2.30;;;;;;;14.95;67.41;101757.91;3592890;39;20052;-60
2022/07/27 00:40:10;;;;;;;3.90;2.13;;;;;;;15.03;67.20;101778.09;3592611;39;20449;-60
2022/07/27 00:42:36;;;;;;;6.80;2.30;;;;;;;14.99;67.75;101776.53;3592077;39;20055;-60
2022/07/27 00:45:03;;;;;;;5.00;2.38;;;;;;;14.96;67.69;101776.75;3593529;39;20065;-60
2022/07/27 00:47:29;;;;;;;5.70;2.53;;;;;;;14.90;68.27;101773.56;3592597;39;21663;-61
2022/07/27 00:49:57;;;;;;;6.88;2.80;;;;;;;14.82;67.85;101771.38;3592501;39;20167;-60
2022/07/27 00:52:24;;;;;;;6.00;2.38;;;;;;;14.80;68.43;101774.16;3592151;39;20051;-60
2022/07/27 00:54:51;;;;;;;3.05;2.20;;;;;;;14.82;68.66;101784.91;3592578;39;20380;-60
2022/07/27 00:57:17;;;;;;;4.43;2.58;;;;;;;14.62;68.17;101762.69;3593387;39;20069;-60
2022/07/27 00:59:43;;;;;;;8.30;2.28;;;;;;;14.74;68.47;101781.81;3591685;39;20133;-61
2022/07/27 01:02:09;;;;;;;2.63;2.30;;;;;;;14.73;68.83;101788.19;3593023;39;20056;-61
2022/07/27 01:04:36;;;;;;;5.30;2.40;;;;;;;14.70;68.74;101772.16;3592755;39;20067;-60
2022/07/27 01:07:04;;;;;;;4.07;1.88;;;;;;;14.66;68.79;101774.19;3592781;39;20051;-61
2022/07/27 01:12:22;;;;;;;4.68;2.28;;;;;;;14.59;68.68;101762.88;3592920;39;20082;-61
2022/07/27 01:14:51;;;;;;;8.43;2.78;;;;;;;14.59;69.07;101773.72;3595344;39;20116;-61
2022/07/27 01:17:17;;;;;;;4.45;2.45;;;;;;;14.56;69.12;101768.50;3583012;39;20295;-61
2022/07/27 01:19:44;;;;;;;5.88;2.70;;;;;;;14.55;69.21;101766.72;3590853;39;20141;-61
2022/07/27 01:22:10;;;;;;;4.88;2.60;;;;;;;14.27;69.26;101729.72;3590942;39;20048;-61
2022/07/27 01:24:37;;;;;;;6.63;2.72;;;;;;;14.46;69.37;101761.91;3590391;39;20071;-60
2022/07/27 01:27:05;;;;;;;4.57;2.53;;;;;;;14.45;69.76;101770.97;3594957;39;20085;-60
2022/07/27 01:29:32;;;;;;;7.32;2.53;;;;;;;14.41;69.74;101769.41;3595293;39;20047;-60
2022/07/27 01:31:58;;;;;;;6.47;2.45;;;;;;;14.38;69.84;101769.63;3594114;39;20055;-61
2022/07/27 01:34:23;;;;;;;5.55;2.50;;;;;;;14.32;69.65;101770.00;3592902;39;20062;-61
2022/07/27 01:36:49;;;;;;;4.50;2.55;;;;;;;14.27;69.94;101777.50;3593932;39;20128;-61
2022/07/27 01:39:17;;;;;;;4.68;2.67;;;;;;;14.22;70.25;101772.41;3593104;39;20117;-60
2022/07/27 01:41:44;;;;;;;6.88;2.70;;;;;;;14.13;71.03;101768.44;3591182;39;20078;-61
2022/07/27 01:44:10;;;;;;;3.22;2.58;;;;;;;14.15;70.57;101769.22;3592991;39;20367;-61
2022/07/27 01:46:36;;;;;;;4.20;2.35;;;;;;;14.01;70.96;101747.56;3593008;39;20055;-61
2022/07/27 01:49:03;;;;;;;5.22;2.65;;;;;;;14.12;70.98;101768.53;3593699;39;20054;-61
2022/07/27 01:51:29;;;;;;;5.45;2.83;;;;;;;14.07;71.22;101760.69;3591645;39;20059;-60
2022/07/27 01:53:54;;;;;;;4.45;2.17;;;;;;;12.81;71.00;101551.34;3592974;39;20140;-61
2022/07/27 01:56:20;;;;;;;2.65;2.45;;;;;;;14.02;71.28;101760.13;3593088;39;20076;-61
2022/07/27 01:58:45;;;;;;;5.10;2.63;;;;;;;14.01;70.98;101766.47;3592945;39;20094;-61
2022/07/27 02:01:11;;;;;;;4.43;2.70;;;;;;;14.02;70.79;101759.22;3592416;39;20351;-61
2022/07/27 02:03:37;;;;;;;2.63;2.28;;;;;;;14.00;70.94;101764.75;3591554;39;20125;-61
2022/07/27 02:06:04;;;;;;;5.22;2.40;;;;;;;13.92;70.52;101767.94;3592595;39;20059;-61
2022/07/27 02:08:31;;;;;;;6.00;2.67;;;;;;;13.81;71.55;101753.31;3591653;39;20059;-61
2022/07/27 02:13:48;;;;;;;5.00;2.80;;;;;;;13.70;72.46;101768.34;3592008;39;20700;-61
2022/07/27 02:16:16;;;;;;;3.70;2.60;;;;;;;13.67;72.26;101757.72;3593801;39;20303;-61
2022/07/27 02:18:42;;;;;;;3.97;2.50;;;;;;;13.65;72.39;101748.84;3591970;39;20328;-61
2022/07/27 02:21:09;;;;;;;6.95;2.60;;;;;;;13.63;72.41;101756.16;3591078;39;20055;-61
2022/07/27 02:23:37;;;;;;;5.57;2.70;;;;;;;13.60;72.84;101756.34;3590052;39;20461;-60
2022/07/27 02:26:06;;;;;;;8.20;3.30;;;;;;;13.61;72.63;101758.09;3593812;39;20120;-61
2022/07/27 02:28:34;;;;;;;3.95;2.55;;;;;;;13.58;72.32;101750.16;3591818;39;20124;-59
2022/07/27 02:31:01;;;;;;;5.50;3.17;;;;;;;13.43;72.40;101738.44;3592229;39;20120;-61
2022/07/27 02:33:27;;;;;;;4.03;3.00;;;;;;;13.42;72.98;101749.34;3591054;39;20067;-59
2022/07/27 02:35:53;;;;;;;7.20;2.67;;;;;;;13.35;73.23;101747.94;3581927;39;20423;-59
2022/07/27 02:38:18;;;;;;;3.97;2.92;;;;;;;13.32;73.38;101746.31;3592428;39;20141;-61
2022/07/27 02:40:44;;;;;;;9.38;3.15;;;;;;;13.28;73.22;101752.84;3589630;39;20106;-62
2022/07/27 02:43:11;;;;;;;4.15;2.90;;;;;;;13.21;73.80;101736.09;3593341;39;20223;-61
2022/07/27 02:45:37;;;;;;;4.47;2.67;;;;;;;13.18;73.43;101732.69;3593196;39;20104;-62
2022/07/27 02:48:03;;;;;;;5.18;3.00;;;;;;;13.17;73.84;101748.03;3591166;39;20334;-62
2022/07/27 02:50:28;;;;;;;8.93;3.00;;;;;;;13.12;74.18;101752.81;3591261;39;20070;-61
2022/07/27 02:52:54;;;;;;;5.93;2.95;;;;;;;13.11;74.22;101755.63;3592610;39;20062;-62
2022/07/27 02:55:19;;;;;;;7.07;3.10;;;;;;;13.12;74.60;101747.41;3593485;39;20553;-61
2022/07/27 02:57:45;;;;;;;5.47;3.05;;;;;;;13.20;73.83;101747.88;3591517;39;20105;-61
2022/07/27 03:00:15;;;;;;;5.97;2.88;;;;;;;13.18;73.87;101744.38;3594085;39;20068;-62
2022/07/27 03:02:40;;;;;;;4.68;2.95;;;;;;;13.21;73.35;101749.59;3593189;39;20055;-61
2022/07/27 03:05:09;;;;;;;5.75;3.40;;;;;;;13.22;73.41;101745.97;3593477;39;20531;-62
2022/07/27 03:07:35;;;;;;;6.57;2.80;;;;;;;13.18;73.32;101747.06;3591775;39;20110;-62
2022/07/27 03:10:01;;;;;;;5.07;3.20;;;;;;;13.14;73.78;101756.31;3593021;39;20115;-62
2022/07/27 03:12:26;;;;;;;5.93;2.92;;;;;;;13.09;74.01;101754.84;3593626;39;20101;-63
2022/07/27 03:14:52;;;;;;;6.65;3.42;;;;;;;13.00;74.01;101746.31;3592047;39;20305;-61
2022/07/27 03:17:17;;;;;;;5.75;3.00;;;;;;;13.06;73.95;101753.16;3593370;39;20418;-61
2022/07/27 03:19:43;;;;;;;4.35;2.88;;;;;;;13.04;74.36;101757.81;3592820;39;20384;-61
2022/07/27 03:22:09;;;;;;;6.22;3.20;;;;;;;13.05;74.39;101754.13;3593022;39;20055;-61
2022/07/27 03:24:34;;;;;;;6.70;3.00;;;;;;;12.96;74.24;101741.16;3594288;39;20124;-61
2022/07/27 03:27:00;;;;;;;5.10;3.60;;;;;;;13.05;74.27;101759.53;3592546;39;20059;-63
2022/07/27 03:29:28;;;;;;;5.38;3.50;;;;;;;13.07;74.01;101757.63;3593742;39;20077;-63
2022/07/27 03:31:54;;;;;;;8.50;3.35;;;;;;;13.00;74.30;101753.53;3591719;39;20271;-62
2022/07/27 03:34:20;;;;;;;4.32;3.17;;;;;;;12.98;73.91;101744.66;3592851;39;20070;-63
2022/07/27 03:36:45;;;;;;;5.53;3.50;;;;;;;12.97;74.08;101751.00;3593127;39;20066;-63
2022/07/27 03:39:12;;;;;;;4.28;3.00;;;;;;;12.92;74.48;101753.97;3593242;39;20047;-63
2022/07/27 03:41:39;;;;;;;6.32;2.90;;;;;;;12.78;74.52;101726.88;3584874;39;20443;-63
2022/07/27 03:44:05;;;;;;;6.53;3.30;;;;;;;12.88;74.92;101741.63;3584351;39;20375;-62
2022/07/27 03:46:31;;;;;;;6.05;3.00;;;;;;;12.93;74.43;101749.44;3593532;39;20334;-61
2022/07/27 03:48:57;;;;;;;6.88;3.45;;;;;;;12.89;74.40;101755.97;3593582;39;20059;-61
2022/07/27 03:51:23;;;;;;;6.72;3.40;;;;;;;12.86;74.68;101762.41;3592889;39;20067;-61
2022/07/27 03:53:49;;;;;;;5.25;3.42;;;;;;;12.88;74.40;101756.94;3592684;39;20064;-60
2022/07/27 03:56:14;;;;;;;5.63;3.40;;;;;;;12.85;75.16;101754.41;3594253;39;20059;-61
2022/07/27 03:58:40;;;;;;;4.00;2.90;;;;;;;12.89;74.74;101754.16;3592420;39;20689;-60
2022/07/27 04:01:06;;;;;;;5.80;3.30;;;;;;;12.94;75.13;101767.38;3593054;39;20051;-61
2022/07/27 04:03:31;;;;;;;4.90;3.30;;;;;;;12.93;74.61;101760.22;3592886;39;20310;-61
2022/07/27 04:05:57;;;;;;;6.15;3.63;;;;;;;12.99;75.62;101765.28;3592639;39;20128;-60
2022/07/27 04:08:22;;;;;;;8.45;3.70;;;;;;;13.02;75.38;101765.13;3594868;39;20398;-61
2022/07/27 04:10:48;;;;;;;4.43;2.83;;;;;;;13.01;75.22;101768.78;3591080;39;20312;-62
2022/07/27 04:13:14;;;;;;;6.97;3.60;;;;;;;13.05;75.21;101764.94;3591692;39;20086;-62
2022/07/27 04:15:40;;;;;;;6.25;3.25;;;;;;;13.11;75.29;101759.19;3590384;39;20048;-62
2022/07/27 04:18:05;;;;;;;6.28;3.20;;;;;;;13.16;75.92;101757.09;3591829;39;20124;-65
2022/07/27 04:20:31;;;;;;;3.70;3.40;;;;;;;13.19;75.26;101756.94;3593587;39;20055;-62
2022/07/27 04:22:57;;;;;;;4.97;3.50;;;;;;;13.18;75.29;101760.56;3591851;39;20306;-63
2022/07/27 04:25:22;;;;;;;4.10;3.67;;;;;;;13.20;75.46;101753.25;3591359;39;20050;-62
2022/07/27 04:27:49;;;;;;;6.97;3.25;;;;;;;13.27;74.94;101761.03;3581127;39;20151;-62
2022/07/27 04:30:15;;;;;;;6.00;3.45;;;;;;;13.32;74.93;101761.63;3591879;39;20055;-62
2022/07/27 04:32:40;;;;;;;4.90;2.83;;;;;;;13.33;75.02;101747.19;3582099;39;20140;-62
2022/07/27 04:35:07;;;;;;;6.07;3.10;;;;;;;13.24;74.34;101738.66;3592057;39;20260;-61
2022/07/27 04:37:33;;;;;;;4.10;3.13;;;;;;;13.36;74.32;101757.81;3596473;39;20477;-62
2022/07/27 04:40:00;;;;;;;6.82;3.78;;;;;;;13.46;74.84;101765.25;3595117;39;20077;-60
2022/07/27 04:42:25;;;;;;;7.35;3.50;;;;;;;13.50;74.63;101776.75;3592236;39;20066;-63
2022/07/27 04:44:51;;;;;;;10.63;3.30;;;;;;;13.51;74.68;101756.91;3593205;39;20067;-62
2022/07/27 04:47:17;;;;;;;6.15;3.92;;;;;;;13.55;74.56;101758.47;3594017;39;20059;-65
2022/07/27 04:49:43;;;;;;;5.78;3.20;;;;;;;13.57;74.42;101767.31;3593006;39;20058;-62
2022/07/27 04:52:08;;;;;;;5.28;3.42;;;;;;;13.70;73.74;101772.88;3591469;39;20071;-62
2022/07/27 04:54:34;;;;;;;7.63;4.13;;;;;;;13.77;74.03;101776.97;3590409;39;20401;-61
2022/07/27 04:57:00;;;;;;;5.68;3.50;;;;;;;13.81;74.03;101781.22;3593733;39;20125;-62
2022/07/27 04:59:25;;;;;;;10.18;3.67;;;;;;;13.87;73.73;101779.97;3592536;39;20056;-62
2022/07/27 05:01:51;;;;;;;6.30;3.85;;;;;;;13.91;73.60;101784.22;3592409;39;20063;-62
2022/07/27 05:04:16;;;;;;;8.40;4.25;;;;;;;13.93;73.51;101785.00;3592231;39;20059;-60
2022/07/27 05:06:42;;;;;;;11.07;3.92;;;;;;;13.97;73.44;101785.69;3591507;39;20104;-61
2022/07/27 05:09:07;;;;;;;6.28;3.55;;;;;;;14.00;73.21;101780.97;3591283;39;20264;-61
2022/07/27 05:11:33;;;;;;;11.07;3.50;;;;;;;14.02;73.37;101778.16;3590960;39;20063;-61
2022/07/27 05:13:59;;;;;;;5.85;3.28;;;;;;;14.07;72.83;101784.16;3592098;39;20128;-61
2022/07/27 05:16:24;;;;;;;5.32;3.47;;;;;;;14.11;72.76;101789.31;3591953;39;20063;-61
2022/07/27 05:18:50;;;;;;;5.47;3.58;;;;;;;14.10;73.00;101790.25;3590999;39;20128;-61
2022/07/27 05:21:16;;;;;;;8.35;3.45;;;;;;;14.12;72.91;101791.03;3590314;39;20324;-61
2022/07/27 05:23:41;;;;;;;5.72;4.00;;;;;;;14.14;73.05;101796.34;3590706;39;20064;-61
2022/07/27 05:26:07;;;;;;;6.82;3.63;;;;;;;14.17;72.82;101801.56;3592632;39;20051;-61
2022/07/27 05:28:32;;;;;;;8.07;3.50;;;;;;;14.20;73.19;101805.91;3589271;39;20398;-61
2022/07/27 05:30:58;;;;;;;8.48;3.92;;;;;;;14.22;73.18;101818.38;3590123;39;20047;-60
2022/07/27 05:33:24;;;;;;;11.15;4.13;;;;;;;14.25;73.21;101817.31;3590742;39;20108;-61
2022/07/27 05:35:49;;;;;;;10.65;4.88;;;;;;;14.28;72.57;101814.44;3590470;39;20063;-61
2022/07/27 05:38:15;;;;;;;9.65;5.10;;;;;;;14.31;72.65;101815.13;3589965;39;20458;-61
2022/07/27 05:40:44;;;;;;;14.75;5.80;;;;;;;14.32;72.67;101813.28;3590701;39;20063;-60
2022/07/27 05:43:09;;;;;;;17.70;6.50;;;;;;;14.36;72.70;101804.84;3589382;39;20144;-60
2022/07/27 05:45:35;;;;;;;10.98;5.00;;;;;;;14.39;72.17;101804.66;3590984;39;20051;-61
2022/07/27 05:48:01;;;;;;;10.70;5.60;;;;;;;14.45;72.57;101803.44;3591793;39;20065;-60
2022/07/27 05:50:26;;;;;;;7.88;4.72;;;;;;;14.45;72.28;101799.84;3591632;39;20309;-60
2022/07/27 05:52:52;;;;;;;7.22;4.43;;;;;;;14.56;72.32;101809.09;3590777;39;20063;-61
2022/07/27 05:55:17;;;;;;;6.45;4.25;;;;;;;14.61;72.16;101811.47;3589454;39;20055;-61
2022/07/27 05:57:43;;;;;;;10.48;4.13;;;;;;;14.65;72.29;101814.84;3590418;39;20055;-61
2022/07/27 06:00:10;;;;;;;8.65;3.90;;;;;;;14.54;71.62;101789.34;3589744;39;20059;-61
2022/07/27 06:02:36;;;;;;;7.18;4.03;;;;;;;14.82;70.97;101812.84;3590393;39;20058;-61
2022/07/27 06:05:04;;;;;;;7.38;3.42;;;;;;;14.86;70.71;101813.50;3591358;39;20068;-61
2022/07/27 06:10:14;;;;;;;8.32;2.88;;;;;;;15.11;69.08;101828.19;3592234;39;20079;-61
2022/07/27 06:12:43;;;;;;;6.55;2.83;;;;;;;15.17;69.31;101827.78;3590738;39;20059;-60
2022/07/27 06:15:10;;;;;;;6.10;2.70;;;;;;;15.25;68.52;101823.56;3588993;39;20063;-60
2022/07/27 06:17:37;;;;;;;6.85;2.53;;;;;;;15.35;68.10;101823.88;3590918;39;20109;-61
2022/07/27 06:20:06;;;;;;;8.35;2.72;;;;;;;15.47;68.66;101828.44;3591864;39;20059;-61
2022/07/27 06:22:31;;;;;;;4.38;2.08;;;;;;;15.55;66.53;101823.41;3590807;39;20314;-61
2022/07/27 06:24:58;;;;;;;3.72;2.03;;;;;;;15.57;66.52;101804.31;3589751;39;20066;-61
2022/07/27 06:27:23;;;;;;;4.97;2.05;;;;;;;15.32;65.92;101735.53;3592675;39;20048;-61
2022/07/27 06:29:49;;;;;;;6.10;2.40;;;;;;;16.01;65.61;101820.28;3592231;39;20325;-61
2022/07/27 06:32:15;;;;;;;5.90;2.35;;;;;;;16.18;65.48;101815.56;3589908;39;20063;-60
2022/07/27 06:34:40;;;;;;;3.25;2.08;;;;;;;16.30;63.93;101822.84;3590647;39;20065;-61
2022/07/27 06:37:06;;;;;;;5.10;2.35;;;;;;;16.42;64.58;101827.38;3593792;39;20058;-62
2022/07/27 06:39:31;;;;;;;4.95;2.45;;;;;;;16.55;65.35;101805.69;3594156;39;20067;-62
2022/07/27 06:41:57;;;;;;;4.80;2.13;;;;;;;16.84;64.03;101825.38;3594211;39;20062;-62
2022/07/27 06:44:22;;;;;;;4.55;2.15;;;;;;;17.08;62.64;101821.81;3593567;39;20361;-62
2022/07/27 06:46:48;;;;;;;3.70;1.33;;;;;;;17.22;60.72;101824.41;3591292;39;20063;-62
2022/07/27 06:49:14;;;;;;;2.42;1.38;;;;;;;17.34;59.97;101817.16;3592103;39;20358;-62
2022/07/27 06:51:39;;;;;;;4.07;1.50;;;;;;;17.22;59.19;101780.94;3592391;39;20279;-62
2022/07/27 06:54:05;;;;;;;5.50;1.20;;;;;;;17.69;58.82;101828.09;3590316;39;20133;-62
2022/07/27 06:56:31;;;;;;;2.72;1.10;;;;;;;17.92;58.44;101828.22;3590149;39;20154;-62
2022/07/27 06:58:57;;;;;;;4.93;1.55;;;;;;;18.10;58.36;101821.38;3589593;39;20131;-62
2022/07/27 07:01:23;;;;;;;4.20;1.30;;;;;;;18.24;57.14;101826.63;3589399;39;20307;-62
2022/07/27 07:03:48;;;;;;;3.08;1.10;;;;;;;18.37;57.19;101833.81;3589804;39;20181;-63
2022/07/27 07:06:14;;;;;;;2.28;1.20;;;;;;;18.53;56.13;101837.06;3591009;39;20364;-62
2022/07/27 07:08:40;;;;;;;4.72;1.38;;;;;;;18.68;56.18;101838.56;3590218;39;20059;-62
2022/07/27 07:11:05;;;;;;;5.10;1.20;;;;;;;18.89;56.28;101840.56;3590819;39;20068;-63
2022/07/27 07:13:32;;;;;;;4.78;1.25;;;;;;;19.00;55.43;101827.81;3591657;39;20445;-63
2022/07/27 07:15:57;;;;;;;3.80;1.05;;;;;;;19.27;55.91;101850.22;3592071;39;20374;-62
2022/07/27 07:18:23;;;;;;;1.92;1.05;;;;;;;19.51;53.63;101841.88;3593431;39;20081;-62
2022/07/27 07:20:49;;;;;;;4.28;1.00;;;;;;;19.74;53.87;101839.97;3593116;39;20302;-62
2022/07/27 07:23:14;;;;;;;1.63;1.05;;;;;;;20.01;52.97;101845.78;3592063;39;20051;-64
2022/07/27 07:25:40;;;;;;;4.55;1.10;;;;;;;20.08;51.45;101841.56;3590934;39;20040;-63
2022/07/27 07:28:07;;;;;;;7.07;2.58;;;;;;;20.02;52.34;101847.53;3591364;39;20414;-64
2022/07/27 07:30:33;;;;;;;4.95;1.20;;;;;;;19.93;51.92;101831.94;3590499;39;21709;-64
2022/07/27 07:32:59;;;;;;;3.38;1.00;;;;;;;20.07;52.27;101849.84;3591749;39;20126;-65
2022/07/27 07:35:25;;;;;;;2.92;1.20;;;;;;;20.05;51.44;101852.72;3582432;39;20099;-64
2022/07/27 07:37:51;;;;;;;4.10;1.20;;;;;;;19.92;52.66;101846.59;3592277;39;20051;-64
2022/07/27 07:40:18;;;;;;;3.03;1.00;;;;;;;19.87;52.45;101848.84;3591953;39;20055;-64
2022/07/27 07:42:53;;;;;;;1.40;0.90;;;;;;;19.70;50.89;101847.53;3591610;39;20409;-64
2022/07/27 07:45:23;;;;;;;2.08;0.77;;;;;;;19.59;51.35;101856.56;3594859;39;20242;-64
2022/07/27 07:47:50;;;;;;;5.65;1.45;;;;;;;19.80;53.47;101851.22;3595641;39;20362;-64
2022/07/27 07:50:17;;;;;;;2.83;1.15;;;;;;;19.83;51.23;101841.91;3594709;39;20062;-64
2022/07/27 07:52:43;;;;;;;4.35;1.17;;;;;;;19.83;51.49;101848.22;3591659;39;20437;-64
2022/07/27 07:55:10;;;;;;;5.53;1.40;;;;;;;19.67;51.06;101854.13;3583444;40;20055;-64
2022/07/27 07:57:36;;;;;;;6.65;1.27;;;;;;;19.54;50.90;101849.81;3591252;39;20124;-64
2022/07/27 08:00:06;;;;;;;2.80;1.25;;;;;;;19.44;51.33;101853.28;3592953;39;20059;-64
2022/07/27 08:02:31;;;;;;;3.58;1.00;;;;;;;19.44;50.93;101857.84;3576577;39;20556;-64
2022/07/27 08:04:57;;;;;;;2.53;0.88;;;;;;;19.42;52.19;101859.84;3591565;39;20108;-64
2022/07/27 08:07:22;;;;;;;4.85;1.45;;;;;;;19.51;51.89;101864.56;3591757;39;20062;-64
2022/07/27 08:09:48;;;;;;;6.30;1.30;;;;;;;19.55;51.49;101866.03;3585916;39;20394;-63
2022/07/27 08:12:13;;;;;;;5.15;1.55;;;;;;;19.49;52.07;101867.38;3592680;39;20059;-64
2022/07/27 08:14:39;;;;;;;4.72;1.40;;;;;;;19.42;51.32;101878.94;3595508;39;20129;-64
2022/07/27 08:17:05;;;;;;;3.83;1.63;;;;;;;19.32;51.85;101875.25;3594953;39;20059;-64
2022/07/27 08:19:30;;;;;;;1.23;0.70;;;;;;;19.23;50.85;101875.00;3591346;39;20405;-63
2022/07/27 08:21:56;;;;;;;5.40;1.20;;;;;;;19.19;51.58;101869.94;3593359;39;20059;-64
2022/07/27 08:24:21;;;;;;;4.13;1.13;;;;;;;19.11;51.11;101866.97;3594428;39;20047;-63
2022/07/27 08:26:47;;;;;;;2.40;0.90;;;;;;;19.05;52.95;101857.41;3597481;39;20063;-63
2022/07/27 08:29:12;;;;;;;2.97;1.02;;;;;;;19.06;54.15;101863.72;3596413;39;20412;-62
2022/07/27 08:31:38;;;;;;;2.70;1.15;;;;;;;19.00;54.21;101862.38;3594173;39;20063;-63
2022/07/27 08:34:04;;;;;;;4.20;1.35;;;;;;;18.96;54.39;101855.44;3594431;39;20139;-63
2022/07/27 08:36:29;;;;;;;5.97;1.10;;;;;;;19.01;53.64;101853.22;3583624;39;20404;-63
2022/07/27 08:38:55;;;;;;;5.63;1.10;;;;;;;19.13;52.98;101854.94;3594090;39;20347;-63
2022/07/27 08:41:25;;;;;;;3.70;0.95;;;;;;;19.29;52.48;101850.97;3590737;39;20124;-64
2022/07/27 08:43:54;;;;;;;4.72;1.25;;;;;;;19.80;50.55;101855.81;3596899;39;20118;-65
2022/07/27 08:46:21;;;;;;;2.97;1.00;;;;;;;20.47;46.97;101841.81;3587175;39;20047;-64
2022/07/27 08:48:48;;;;;;;2.33;1.05;;;;;;;21.00;46.00;101854.50;3594910;39;20675;-64
2022/07/27 08:51:14;;;;;;;4.90;1.42;;;;;;;21.06;45.51;101852.06;3591722;39;20051;-65
2022/07/27 08:53:40;;;;;;;2.47;0.95;;;;;;;20.96;43.18;101840.19;3595485;39;20051;-66
2022/07/27 08:56:05;;;;;;;1.73;0.80;;;;;;;21.17;42.17;101845.63;3591431;39;20052;-64
2022/07/27 08:58:31;;;;;;;1.88;0.90;;;;;;;21.27;41.73;101856.59;3588975;39;20052;-64
2022/07/27 09:00:57;;;;;;;2.95;0.60;;;;;;;21.39;42.08;101850.03;3596907;39;20058;-64
2022/07/27 09:03:23;;;;;;;2.38;1.00;;;;;;;21.55;42.28;101872.22;3599436;39;20286;-64
2022/07/27 09:05:54;;;;;;;3.28;0.93;;;;;;;21.84;42.70;101867.81;3595881;39;20124;-64
2022/07/27 09:08:27;;;;;;;2.47;0.90;;;;;;;21.99;41.54;101872.72;3586258;39;20051;-64
2022/07/27 09:10:55;;;;;;;2.70;1.15;;;;;;;21.88;42.18;101866.50;3594749;39;20125;-64
2022/07/27 09:13:31;;;;;;;3.42;0.80;;;;;;;21.69;39.64;101862.78;3595447;39;20050;-63
2022/07/27 09:16:02;;;;;;;2.22;0.93;;;;;;;21.60;39.53;101862.72;3595327;39;20086;-64
2022/07/27 09:18:32;;;;;;;3.28;0.77;;;;;;;21.58;38.93;101867.50;3595669;39;20057;-64
2022/07/27 09:21:23;;;;;;;1.10;0.65;;;;;;;21.50;40.90;101869.06;3598000;39;20055;-65
2022/07/27 09:23:54;;;;;;;2.63;0.90;;;;;;;21.38;40.32;101859.25;3598043;39;20141;-65
2022/07/27 09:26:28;;;;;;;2.38;0.80;;;;;;;21.37;39.39;101865.69;3595342;39;20063;-63
2022/07/27 09:29:01;;;;;;;2.28;0.73;;;;;;;21.37;41.91;101871.19;3594787;39;20153;-64
2022/07/27 09:31:28;;;;;;;3.13;0.90;;;;;;;21.32;41.75;101874.31;3595420;39;20063;-65
2022/07/27 09:33:59;;;;;;;1.45;0.82;;;;;;;21.34;41.62;101863.22;3593405;39;20403;-65
2022/07/27 09:36:29;;;;;;;3.33;1.20;;;;;;;21.47;42.34;101863.88;3593086;39;20055;-66
2022/07/27 09:39:04;;;;;;;3.78;0.80;;;;;;;21.58;44.35;101862.88;3593217;39;20345;-66
2022/07/27 09:41:44;;;;;;;4.20;1.42;;;;;;;21.64;44.45;101862.31;3591228;39;20090;-64
2022/07/27 09:44:10;;;;;;;1.58;1.00;;;;;;;21.64;44.48;101862.31;3590935;39;20661;-66
2022/07/27 09:46:41;;;;;;;12.40;1.73;;;;;;;21.61;44.01;101867.22;3595380;39;20058;-65
2022/07/27 09:49:30;;;;;;;7.40;1.20;;;;;;;21.49;44.95;101870.06;3594066;39;20105;-66
2022/07/27 09:51:58;;;;;;;5.18;1.17;;;;;;;21.40;44.75;101868.16;3594577;39;20132;-66
2022/07/27 09:54:24;;;;;;;1.98;0.90;;;;;;;21.37;44.95;101870.31;3595262;39;20382;-66
2022/07/27 09:57:00;;;;;;;2.03;1.00;;;;;;;21.26;45.49;101866.66;3595425;39;20115;-65
2022/07/27 09:59:28;;;;;;;2.75;1.40;;;;;;;21.08;45.60;101863.72;3594161;39;20071;-66
2022/07/27 10:01:56;;;;;;;3.70;1.27;;;;;;;20.95;46.23;101852.16;3594306;39;20048;-65
2022/07/27 10:04:23;;;;;;;5.13;1.38;;;;;;;20.89;48.10;101868.22;3592936;39;21477;-66
2022/07/27 10:06:49;;;;;;;1.98;1.10;;;;;;;20.88;48.25;101875.56;3597714;39;20374;-65
2022/07/27 10:09:18;;;;;;;5.47;1.55;;;;;;;20.88;47.64;101870.09;3596226;39;20435;-65
2022/07/27 10:11:47;;;;;;;7.07;1.80;;;;;;;20.96;47.04;101870.28;3591192;39;20293;-65
2022/07/27 10:14:14;;;;;;;8.75;1.80;;;;;;;21.08;47.68;101858.25;3595630;39;20140;-65
2022/07/27 10:16:42;;;;;;;7.72;2.28;;;;;;;21.45;46.75;101865.88;3597738;39;20459;-65
2022/07/27 10:19:24;;;;;;;4.85;1.30;;;;;;;22.14;44.91;101862.19;3595949;39;20061;-65
2022/07/27 10:21:50;;;;;;;6.85;1.98;;;;;;;22.73;44.94;101860.22;3593547;39;20063;-66
2022/07/27 10:24:35;;;;;;;3.53;1.27;;;;;;;23.35;41.81;101864.19;3594307;39;20131;-66
2022/07/27 10:27:27;;;;;;;6.60;2.30;;;;;;;23.68;40.21;101858.19;3595164;39;20059;-64
2022/07/27 10:29:56;;;;;;;4.28;1.70;;;;;;;23.55;40.23;101861.31;3594649;39;20074;-65
2022/07/27 10:32:33;;;;;;;5.22;1.30;;;;;;;23.22;40.04;101855.47;3595733;39;20377;-64
2022/07/27 10:35:00;;;;;;;4.78;2.08;;;;;;;22.91;41.04;101852.97;3586675;39;20324;-64
2022/07/27 10:37:30;;;;;;;5.00;1.50;;;;;;;22.96;43.86;101854.41;3591434;39;20123;-64
2022/07/27 10:43:08;;;;;;;5.10;1.27;;;;;;;23.64;41.10;101847.53;3596696;39;20408;-65
2022/07/27 10:45:45;;;;;;;3.92;1.90;;;;;;;24.13;38.95;101844.41;3591102;39;20051;-65
2022/07/27 10:48:36;;;;;;;2.25;0.82;;;;;;;24.65;36.74;101840.88;3581259;39;20323;-65
2022/07/27 10:51:12;;;;;;;2.25;1.15;;;;;;;24.22;36.72;101758.28;3581795;39;20439;-65
2022/07/27 10:53:43;;;;;;;3.85;1.30;;;;;;;24.42;36.36;101835.03;3594174;39;20078;-65
2022/07/27 10:56:09;;;;;;;4.35;0.98;;;;;;;24.08;38.00;101838.53;3591382;39;20056;-65
2022/07/27 10:58:35;;;;;;;2.85;1.10;;;;;;;23.74;38.55;101841.13;3592280;39;20059;-66
2022/07/27 11:01:05;;;;;;;3.65;1.20;;;;;;;23.33;40.10;101833.28;3590574;39;20071;-65
2022/07/27 11:03:35;;;;;;;8.00;1.10;;;;;;;22.98;40.78;101833.19;3591490;39;20058;-64
2022/07/27 11:06:20;;;;;;;2.83;1.05;;;;;;;22.75;40.46;101839.03;3588880;39;20121;-65
2022/07/27 11:08:50;;;;;;;2.67;1.13;;;;;;;22.41;41.51;101844.16;3593239;39;20054;-64
2022/07/27 11:11:25;;;;;;;4.40;1.30;;;;;;;22.14;41.42;101828.47;3589178;39;20107;-65
2022/07/27 11:13:57;;;;;;;5.30;1.30;;;;;;;21.94;41.49;101825.72;3592461;39;20066;-65
2022/07/27 11:16:26;;;;;;;5.03;1.15;;;;;;;21.88;41.21;101833.66;3591364;39;20059;-65
2022/07/27 11:18:57;;;;;;;23.92;15.18;;;;;;;21.71;42.58;101829.78;3589778;39;20416;-65
2022/07/27 11:21:47;;;;;;;8.13;5.07;;;;;;;21.75;42.68;101834.81;3579263;39;20055;-66
2022/07/27 11:24:18;;;;;;;9.10;6.35;;;;;;;21.76;43.49;101836.56;3590593;39;20164;-66
2022/07/27 11:26:48;;;;;;;11.40;5.80;;;;;;;21.79;43.64;101835.41;3594221;39;20246;-65
2022/07/27 11:29:18;;;;;;;6.97;2.60;;;;;;;21.85;42.58;101831.22;3589870;39;20054;-65
2022/07/27 11:31:46;;;;;;;3.33;1.70;;;;;;;21.91;42.39;101826.00;3591467;39;20286;-65
2022/07/27 11:34:12;;;;;;;5.63;1.40;;;;;;;22.06;42.42;101831.94;3590512;39;20508;-65
2022/07/27 11:36:49;;;;;;;3.42;1.23;;;;;;;22.11;42.40;101826.03;3592623;39;20055;-65